Terminal Aerodrome Forecast
Issued by NWS Missoula, MT

Home | Current Version | Previous Version | Text Only | Print | Product List | Glossary On
Versions: 1 2 3 4 5 6 7 8 9 10 11 12 13 14 15 16 17 18 19 20 21 22 23 24 25 26 27 28
000
FTUS45 KMSO 062320
TAFBTM
TAF
KBTM 062320Z 0700/0724 00000KT P6SM BKN150
     FM071400 12005KT P6SM VCSH BKN050 BKN080
     FM071800 21005KT 6SM -SHSN BR OVC050=

USA.gov is the U.S. government's official web portal to all federal, state and local government web resources and services.